Time;durP1;ratioP1;P1;durP2;ratioP2;P2;SDS_P1;SDS_P2;PMS_P1;PMS_P2;Temp;Humidity;BMP_temperature;BMP_pressure;BME280_temperature;BME280_humidity;BME280_pressure;Samples;Min_cycle;Max_cycle;Signal;HPM_P1;HPM_P2
2021/10/04 00:00:13;;;;;;;9.05;4.18;;;12.10;97.20;;;;;;5106241;28;20395;-62
2021/10/04 00:02:39;;;;;;;7.82;3.80;;;12.00;97.30;;;;;;5106883;27;20044;-62
2021/10/04 00:05:06;;;;;;;6.63;4.30;;;12.00;97.30;;;;;;5102061;28;20123;-62
2021/10/04 00:07:32;;;;;;;7.70;3.35;;;12.00;97.30;;;;;;5108112;28;20043;-62
2021/10/04 00:09:57;;;;;;;9.55;4.50;;;12.00;97.30;;;;;;5107759;27;20050;-62
2021/10/04 00:12:23;;;;;;;6.20;3.40;;;12.00;97.40;;;;;;5108022;28;20167;-62
2021/10/04 00:14:49;;;;;;;10.77;3.85;;;12.00;97.40;;;;;;5103870;27;20040;-62
2021/10/04 00:17:14;;;;;;;9.82;3.90;;;12.00;97.40;;;;;;5106694;27;20077;-62
2021/10/04 00:19:40;;;;;;;7.90;3.10;;;12.00;97.40;;;;;;5109714;27;20051;-62
2021/10/04 00:22:06;;;;;;;6.90;2.60;;;12.10;97.50;;;;;;5107662;27;20452;-62
2021/10/04 00:24:32;;;;;;;8.88;3.47;;;12.10;97.40;;;;;;5107534;27;20105;-62
2021/10/04 00:26:57;;;;;;;6.53;3.33;;;12.20;97.40;;;;;;5110391;27;20035;-62
2021/10/04 00:29:23;;;;;;;9.23;3.38;;;12.20;97.30;;;;;;5109925;27;20047;-61
2021/10/04 00:31:50;;;;;;;6.75;3.20;;;12.10;97.20;;;;;;5107242;27;20035;-61
2021/10/04 00:34:16;;;;;;;6.35;3.10;;;12.10;97.30;;;;;;5109271;27;20437;-62
2021/10/04 00:36:42;;;;;;;6.22;2.80;;;12.20;97.40;;;;;;5109763;27;20101;-62
2021/10/04 00:39:08;;;;;;;7.38;3.67;;;12.20;97.30;;;;;;5109794;27;20038;-62
2021/10/04 00:41:34;;;;;;;6.22;2.22;;;12.30;97.40;;;;;;5104887;27;20040;-62
2021/10/04 00:44:00;;;;;;;4.63;2.42;;;12.30;97.30;;;;;;5112159;27;22298;-62
2021/10/04 00:46:27;;;;;;;5.95;2.47;;;12.50;97.50;;;;;;5110557;27;20104;-62
2021/10/04 00:48:53;;;;;;;7.68;2.65;;;12.50;97.00;;;;;;5109426;27;20059;-62
2021/10/04 00:51:20;;;;;;;6.03;2.50;;;12.70;96.90;;;;;;5105761;27;20048;-62
2021/10/04 00:53:52;;;;;;;6.30;2.42;;;12.80;96.80;;;;;;5106984;27;20043;-62
2021/10/04 00:56:19;;;;;;;3.95;2.30;;;13.00;96.50;;;;;;5110340;27;20060;-62
2021/10/04 00:58:46;;;;;;;5.07;1.85;;;13.00;96.20;;;;;;5104123;27;20036;-62
2021/10/04 01:01:11;;;;;;;7.10;2.58;;;13.10;96.10;;;;;;5110332;27;20071;-62
2021/10/04 01:03:37;;;;;;;5.13;1.88;;;13.20;96.10;;;;;;5114957;27;20062;-62
2021/10/04 01:06:04;;;;;;;4.80;2.75;;;13.40;95.80;;;;;;5106423;27;20046;-62
2021/10/04 01:08:30;;;;;;;4.05;1.65;;;13.50;95.50;;;;;;5107052;27;20036;-62
2021/10/04 01:10:56;;;;;;;4.07;1.60;;;13.60;95.30;;;;;;5106771;27;20516;-62
2021/10/04 01:13:22;;;;;;;6.18;2.22;;;13.60;95.20;;;;;;5107574;27;20131;-62
2021/10/04 01:15:48;;;;;;;6.20;2.10;;;13.60;95.00;;;;;;5104418;27;20105;-62
2021/10/04 01:18:14;;;;;;;8.32;2.60;;;13.60;94.80;;;;;;5111463;27;20051;-62
2021/10/04 01:20:40;;;;;;;4.07;1.95;;;13.50;94.70;;;;;;5107559;27;20524;-62
2021/10/04 01:23:05;;;;;;;4.22;2.05;;;13.40;94.70;;;;;;5105578;27;20099;-62
2021/10/04 01:25:31;;;;;;;4.63;1.63;;;13.40;94.90;;;;;;5107595;27;20133;-62
2021/10/04 01:27:57;;;;;;;5.82;2.00;;;13.40;95.10;;;;;;5105801;27;20042;-62
2021/10/04 01:30:27;;;;;;;4.53;1.67;;;13.40;94.90;;;;;;5107782;27;20428;-62
2021/10/04 01:32:54;;;;;;;5.47;1.75;;;13.40;94.90;;;;;;5104023;27;20027;-62
2021/10/04 01:35:20;;;;;;;5.10;1.85;;;13.30;95.00;;;;;;5107656;27;20755;-62
2021/10/04 01:37:46;;;;;;;5.72;2.35;;;13.40;95.00;;;;;;5110868;27;20039;-62
2021/10/04 01:40:13;;;;;;;7.55;2.75;;;13.50;94.90;;;;;;5104381;27;20038;-62
2021/10/04 01:42:41;;;;;;;5.65;2.15;;;13.50;94.70;;;;;;5103790;27;20084;-62
2021/10/04 01:45:15;;;;;;;7.78;2.15;;;13.40;94.60;;;;;;5106560;27;20044;-62
2021/10/04 01:47:40;;;;;;;5.35;2.47;;;13.30;94.60;;;;;;5108326;27;20081;-62
2021/10/04 01:50:08;;;;;;;6.40;2.20;;;13.30;94.90;;;;;;5103786;27;20035;-62
2021/10/04 01:52:34;;;;;;;5.25;2.00;;;13.40;94.80;;;;;;5110152;27;20056;-62
2021/10/04 01:55:00;;;;;;;5.05;2.20;;;13.50;94.70;;;;;;5107541;27;20092;-63
2021/10/04 01:57:27;;;;;;;4.70;2.13;;;13.40;94.50;;;;;;5105882;27;20035;-62
2021/10/04 01:59:53;;;;;;;7.38;2.45;;;13.30;94.50;;;;;;5105285;27;20082;-62
2021/10/04 02:02:19;;;;;;;7.10;1.70;;;13.10;94.90;;;;;;5103926;27;20043;-60
2021/10/04 02:04:45;;;;;;;4.72;2.33;;;13.00;95.00;;;;;;5109670;27;20027;-60
2021/10/04 02:07:11;;;;;;;5.43;2.40;;;12.90;95.00;;;;;;5103914;27;20403;-60
2021/10/04 02:09:37;;;;;;;10.32;2.40;;;12.90;95.20;;;;;;5107730;27;20510;-60
2021/10/04 02:12:03;;;;;;;5.18;2.20;;;12.90;95.20;;;;;;5109131;27;20039;-60
2021/10/04 02:14:29;;;;;;;5.38;2.03;;;12.80;95.20;;;;;;5107419;27;20134;-60
2021/10/04 02:16:54;;;;;;;7.05;2.22;;;12.70;95.30;;;;;;5106386;27;20528;-60
2021/10/04 02:19:20;;;;;;;7.15;1.70;;;12.70;95.50;;;;;;5108260;27;20031;-62
2021/10/04 02:21:46;;;;;;;7.65;1.90;;;12.70;95.60;;;;;;5107663;27;20040;-59
2021/10/04 02:24:12;;;;;;;3.20;1.67;;;12.90;95.80;;;;;;5110498;27;20164;-59
2021/10/04 02:26:40;;;;;;;5.03;2.00;;;13.10;95.50;;;;;;5104483;27;20044;-60
2021/10/04 02:29:06;;;;;;;8.35;1.80;;;13.20;95.20;;;;;;5107725;27;20069;-59
2021/10/04 02:31:31;;;;;;;5.45;2.30;;;13.40;95.20;;;;;;5111014;27;20130;-60
2021/10/04 02:33:57;;;;;;;3.03;1.77;;;13.40;94.60;;;;;;5104402;27;20032;-59
2021/10/04 02:36:24;;;;;;;8.02;2.20;;;13.50;94.60;;;;;;5096939;27;20039;-60
2021/10/04 02:38:51;;;;;;;3.75;1.55;;;13.60;94.50;;;;;;5106271;27;20394;-60
2021/10/04 02:41:17;;;;;;;5.30;1.80;;;13.70;94.30;;;;;;5106272;27;20044;-60
2021/10/04 02:43:43;;;;;;;7.15;2.25;;;13.80;94.00;;;;;;5104214;27;20500;-60
2021/10/04 02:46:09;;;;;;;6.13;2.17;;;13.70;93.80;;;;;;5106887;27;20038;-60
2021/10/04 02:48:34;;;;;;;6.60;1.92;;;13.60;93.90;;;;;;5111838;27;20087;-59
2021/10/04 02:51:00;;;;;;;7.53;2.03;;;13.50;94.00;;;;;;5101664;27;21198;-60
2021/10/04 02:53:26;;;;;;;7.72;2.60;;;13.40;94.10;;;;;;5103407;27;20452;-60
2021/10/04 02:55:52;;;;;;;5.97;1.90;;;13.30;94.30;;;;;;5104090;28;20115;-60
2021/10/04 02:58:18;;;;;;;6.35;2.42;;;13.10;94.40;;;;;;5106790;27;20040;-60
2021/10/04 03:00:44;;;;;;;5.03;1.77;;;13.00;94.60;;;;;;5108451;27;20387;-59
2021/10/04 03:03:10;;;;;;;8.23;1.92;;;12.90;94.90;;;;;;5113727;28;20040;-59
2021/10/04 03:05:36;;;;;;;4.78;1.60;;;12.70;95.00;;;;;;5108782;28;20043;-59
2021/10/04 03:08:02;;;;;;;5.80;2.42;;;12.60;95.20;;;;;;5106301;28;20039;-59
2021/10/04 03:10:29;;;;;;;7.60;2.22;;;12.60;95.40;;;;;;5102999;28;20073;-65
2021/10/04 03:12:55;;;;;;;5.40;1.98;;;12.60;95.40;;;;;;5105889;28;20526;-65
2021/10/04 03:15:21;;;;;;;3.47;1.63;;;12.50;95.50;;;;;;5110253;27;20035;-65
2021/10/04 03:17:47;;;;;;;8.27;1.92;;;12.40;95.60;;;;;;5070114;28;20103;-65
2021/10/04 03:20:12;;;;;;;4.82;1.60;;;12.40;95.70;;;;;;5102491;28;20115;-65
2021/10/04 03:22:38;;;;;;;5.72;1.60;;;12.30;95.80;;;;;;5106058;28;20110;-65
2021/10/04 03:25:07;;;;;;;6.63;2.28;;;12.30;95.90;;;;;;5112801;28;20044;-65
2021/10/04 03:27:33;;;;;;;11.32;2.22;;;12.30;95.90;;;;;;5107894;28;20035;-65
2021/10/04 03:29:58;;;;;;;4.70;1.80;;;12.20;95.90;;;;;;5104062;28;20111;-65
2021/10/04 03:32:24;;;;;;;6.85;1.60;;;12.20;96.00;;;;;;5105436;27;20059;-65
2021/10/04 03:34:50;;;;;;;6.80;1.70;;;12.20;96.00;;;;;;5105917;28;20067;-64
2021/10/04 03:37:16;;;;;;;10.93;1.90;;;12.20;96.10;;;;;;5106585;28;20123;-65
2021/10/04 03:39:42;;;;;;;6.72;1.63;;;12.10;96.10;;;;;;5108861;28;20081;-65
2021/10/04 03:42:08;;;;;;;9.25;1.90;;;12.10;96.10;;;;;;5109763;28;20513;-65
2021/10/04 03:44:34;;;;;;;4.20;1.80;;;12.20;96.20;;;;;;5104500;27;20040;-65
2021/10/04 03:46:59;;;;;;;2.60;1.30;;;12.10;96.10;;;;;;5106876;28;20410;-65
2021/10/04 03:49:25;;;;;;;8.45;1.70;;;12.10;96.20;;;;;;5106026;28;20035;-65
2021/10/04 03:51:51;;;;;;;4.25;1.67;;;12.10;96.20;;;;;;5111768;27;20134;-65
2021/10/04 03:54:16;;;;;;;4.93;1.60;;;12.00;96.20;;;;;;5109090;27;20040;-65
2021/10/04 03:56:42;;;;;;;5.03;2.00;;;12.10;96.30;;;;;;5104449;27;20039;-64
2021/10/04 03:59:08;;;;;;;4.38;1.50;;;12.00;96.30;;;;;;5111610;27;20040;-65
2021/10/04 04:01:34;;;;;;;6.15;1.55;;;12.00;96.40;;;;;;5088573;27;20388;-64
2021/10/04 04:04:00;;;;;;;5.75;2.17;;;11.90;96.70;;;;;;5106717;27;20395;-64
2021/10/04 04:06:25;;;;;;;4.75;1.55;;;11.90;96.50;;;;;;5108262;27;20410;-64
2021/10/04 04:08:51;;;;;;;8.80;1.50;;;11.80;96.60;;;;;;5109769;27;20047;-64
2021/10/04 04:11:17;;;;;;;6.05;1.60;;;11.80;96.60;;;;;;5108182;27;20058;-65
2021/10/04 04:13:42;;;;;;;7.05;1.60;;;11.80;96.70;;;;;;5108778;27;20040;-64
2021/10/04 04:16:08;;;;;;;6.65;1.98;;;11.80;96.80;;;;;;5104857;27;20046;-65
2021/10/04 04:18:34;;;;;;;4.82;1.60;;;11.80;96.80;;;;;;5110231;27;20100;-65
2021/10/04 04:21:00;;;;;;;5.63;1.60;;;11.80;96.80;;;;;;5113408;27;20117;-66
2021/10/04 04:23:25;;;;;;;5.90;1.90;;;11.80;96.80;;;;;;5099809;27;20042;-66
2021/10/04 04:25:51;;;;;;;4.80;1.48;;;11.80;96.90;;;;;;5101332;27;20035;-67
2021/10/04 04:28:17;;;;;;;8.90;2.15;;;11.80;96.90;;;;;;5106619;27;20145;-66
2021/10/04 04:30:43;;;;;;;7.03;1.20;;;11.80;96.90;;;;;;5107265;27;20502;-65
2021/10/04 04:33:08;;;;;;;7.78;1.80;;;11.70;97.00;;;;;;5106775;27;20063;-65
2021/10/04 04:35:34;;;;;;;6.28;1.40;;;11.70;97.00;;;;;;5087250;27;20471;-66
2021/10/04 04:38:00;;;;;;;5.47;1.50;;;11.70;97.00;;;;;;5115396;27;20059;-65
2021/10/04 04:40:25;;;;;;;5.43;1.48;;;11.70;97.00;;;;;;5104854;27;20537;-67
2021/10/04 04:42:51;;;;;;;5.55;1.25;;;11.70;97.00;;;;;;5107908;27;20055;-65
2021/10/04 04:45:19;;;;;;;5.40;1.30;;;11.70;97.00;;;;;;5107013;27;20039;-65
2021/10/04 04:47:46;;;;;;;4.90;1.75;;;11.70;97.00;;;;;;5111871;27;20356;-66
2021/10/04 04:50:13;;;;;;;6.57;1.10;;;11.70;97.00;;;;;;5110258;27;20424;-64
2021/10/04 04:52:39;;;;;;;2.53;0.70;;;11.60;97.00;;;;;;5104841;27;20082;-64
2021/10/04 04:55:06;;;;;;;9.85;1.73;;;11.70;97.10;;;;;;5109837;27;20448;-64
2021/10/04 04:57:32;;;;;;;6.35;1.45;;;11.70;97.10;;;;;;5093544;27;20040;-64
2021/10/04 04:59:58;;;;;;;11.60;2.63;;;11.70;97.20;;;;;;5099746;27;20394;-64
2021/10/04 05:02:25;;;;;;;6.53;1.27;;;11.70;97.20;;;;;;5096848;27;20035;-66
2021/10/04 05:04:51;;;;;;;8.63;1.52;;;11.70;97.20;;;;;;5104747;27;20036;-76
2021/10/04 05:07:17;;;;;;;3.47;1.40;;;11.70;97.20;;;;;;5094286;27;20537;-77
2021/10/04 05:09:42;;;;;;;7.20;1.48;;;11.60;97.20;;;;;;5105199;27;20050;-67
2021/10/04 05:12:08;;;;;;;3.03;1.10;;;11.70;97.30;;;;;;5103360;27;20043;-68
2021/10/04 05:14:34;;;;;;;8.70;1.55;;;11.70;97.30;;;;;;5106156;27;20115;-67
2021/10/04 05:17:01;;;;;;;4.38;2.05;;;11.70;97.20;;;;;;5106687;27;20051;-67
2021/10/04 05:19:26;;;;;;;4.75;1.58;;;11.70;97.20;;;;;;5092714;28;20050;-67
2021/10/04 05:21:53;;;;;;;5.88;1.50;;;11.70;97.30;;;;;;5108808;27;20042;-67
2021/10/04 05:24:19;;;;;;;6.88;1.67;;;11.70;97.30;;;;;;5110298;27;20043;-67
2021/10/04 05:26:45;;;;;;;6.88;1.60;;;11.70;97.30;;;;;;5109255;27;20072;-67
2021/10/04 05:29:11;;;;;;;6.38;1.33;;;11.60;97.30;;;;;;5106329;27;20098;-67
2021/10/04 05:31:37;;;;;;;11.23;2.55;;;11.60;97.20;;;;;;5103630;27;20127;-61
2021/10/04 05:34:03;;;;;;;11.45;1.77;;;11.60;97.30;;;;;;5081006;27;20035;-61
2021/10/04 05:36:30;;;;;;;5.00;1.48;;;11.70;97.40;;;;;;5096205;27;20058;-61
2021/10/04 05:39:02;;;;;;;6.90;1.40;;;11.70;97.40;;;;;;5105750;27;20044;-61
2021/10/04 05:41:27;;;;;;;4.05;1.40;;;11.70;97.30;;;;;;5081501;27;20566;-61
2021/10/04 05:43:53;;;;;;;6.43;1.45;;;11.70;97.30;;;;;;5105170;27;20035;-60
2021/10/04 05:46:18;;;;;;;7.30;1.38;;;11.70;97.30;;;;;;5106275;27;20039;-61
2021/10/04 05:48:44;;;;;;;4.35;1.38;;;11.70;97.60;;;;;;5081381;27;20126;-60
2021/10/04 05:51:10;;;;;;;4.95;1.10;;;11.70;97.30;;;;;;5106934;27;20508;-61
2021/10/04 05:53:36;;;;;;;5.25;1.45;;;11.80;97.50;;;;;;5106125;27;20039;-61
2021/10/04 05:56:02;;;;;;;5.40;1.30;;;11.80;97.40;;;;;;5097903;27;20036;-61
2021/10/04 05:58:28;;;;;;;6.45;1.45;;;11.80;97.40;;;;;;5112720;27;20481;-61
2021/10/04 06:00:53;;;;;;;4.95;1.30;;;11.90;97.40;;;;;;5103100;27;20433;-61
2021/10/04 06:03:19;;;;;;;4.95;1.40;;;11.80;97.20;;;;;;5080433;27;20166;-61
2021/10/04 06:05:45;;;;;;;9.32;1.67;;;11.80;97.20;;;;;;5110105;27;20485;-61
2021/10/04 06:08:10;;;;;;;5.82;1.48;;;11.80;97.20;;;;;;5108752;27;20039;-61
2021/10/04 06:10:36;;;;;;;4.00;1.30;;;11.80;97.20;;;;;;5106048;27;20032;-60
2021/10/04 06:13:03;;;;;;;6.32;1.00;;;11.80;97.20;;;;;;5105642;27;20104;-61
2021/10/04 06:15:29;;;;;;;7.05;1.63;;;11.80;97.20;;;;;;5107890;27;20042;-61
2021/10/04 06:17:55;;;;;;;6.60;1.80;;;11.80;97.30;;;;;;5108331;27;20044;-61
2021/10/04 06:20:21;;;;;;;2.20;1.00;;;11.90;97.30;;;;;;5096869;27;20387;-61
2021/10/04 06:22:48;;;;;;;4.63;1.30;;;11.90;97.20;;;;;;5105021;27;20451;-61
2021/10/04 06:25:15;;;;;;;9.93;1.40;;;11.90;97.10;;;;;;5105360;27;20048;-61
2021/10/04 06:27:45;;;;;;;7.72;1.52;;;11.90;97.10;;;;;;5107438;27;20083;-60
2021/10/04 06:30:13;;;;;;;8.02;1.00;;;11.90;97.10;;;;;;5104365;27;20693;-61
2021/10/04 06:32:39;;;;;;;7.28;1.70;;;11.90;97.10;;;;;;5104404;27;20499;-61
2021/10/04 06:35:05;;;;;;;5.55;1.25;;;11.90;97.10;;;;;;5108574;27;20048;-61
2021/10/04 06:37:31;;;;;;;9.40;1.63;;;11.80;97.00;;;;;;5111381;27;20039;-61
2021/10/04 06:39:57;;;;;;;5.93;1.25;;;11.90;97.00;;;;;;5104666;27;20038;-61
2021/10/04 06:42:24;;;;;;;2.95;1.30;;;11.90;97.00;;;;;;5104075;27;20038;-61
2021/10/04 06:44:51;;;;;;;6.80;1.15;;;11.90;97.10;;;;;;5108498;27;20101;-60
2021/10/04 06:47:16;;;;;;;4.70;1.30;;;11.90;97.20;;;;;;5107167;27;20487;-61
2021/10/04 06:49:42;;;;;;;5.40;0.80;;;11.90;97.10;;;;;;5107950;27;20047;-61
2021/10/04 06:52:08;;;;;;;7.63;1.70;;;11.80;97.10;;;;;;5105926;27;20040;-61
2021/10/04 06:54:36;;;;;;;8.38;1.60;;;11.80;97.10;;;;;;5107688;27;20493;-61
2021/10/04 06:57:02;;;;;;;4.68;1.60;;;11.80;97.00;;;;;;5108771;27;20036;-61
2021/10/04 06:59:28;;;;;;;4.57;1.40;;;11.80;97.00;;;;;;5102266;27;20039;-59
2021/10/04 07:01:54;;;;;;;4.13;1.25;;;11.80;97.00;;;;;;5104842;27;20158;-59
2021/10/04 07:04:20;;;;;;;3.85;1.10;;;11.80;97.00;;;;;;5106365;28;20496;-60
2021/10/04 07:06:45;;;;;;;6.65;1.20;;;11.90;97.10;;;;;;5108770;28;20034;-60
2021/10/04 07:09:11;;;;;;;6.53;1.65;;;11.90;97.10;;;;;;5102443;28;20472;-60
2021/10/04 07:11:37;;;;;;;5.38;1.80;;;11.90;97.00;;;;;;5108715;28;20044;-60
2021/10/04 07:14:03;;;;;;;5.25;1.60;;;12.00;97.00;;;;;;5107658;28;20089;-60
2021/10/04 07:16:28;;;;;;;5.53;1.20;;;12.00;96.90;;;;;;5108438;27;20079;-60
2021/10/04 07:18:54;;;;;;;5.85;1.23;;;12.00;96.90;;;;;;5102794;27;20537;-60
2021/10/04 07:21:20;;;;;;;5.05;1.50;;;12.00;96.90;;;;;;5104330;28;20045;-60
2021/10/04 07:23:46;;;;;;;5.57;1.45;;;12.00;96.90;;;;;;5103090;28;20078;-60
2021/10/04 07:26:13;;;;;;;4.78;1.55;;;12.10;97.00;;;;;;5108399;27;20421;-60
2021/10/04 07:28:39;;;;;;;6.43;1.70;;;12.10;97.20;;;;;;5107941;27;20545;-60
2021/10/04 07:31:05;;;;;;;6.30;1.65;;;12.10;96.90;;;;;;5109699;27;20039;-60
2021/10/04 07:33:31;;;;;;;10.07;1.48;;;12.10;96.90;;;;;;5110529;27;20316;-60
2021/10/04 07:35:57;;;;;;;3.95;1.35;;;12.10;96.90;;;;;;5114832;27;20047;-60
2021/10/04 07:38:24;;;;;;;3.70;1.30;;;12.10;96.90;;;;;;5106824;27;20039;-60
2021/10/04 07:40:50;;;;;;;7.40;1.50;;;12.10;96.90;;;;;;5107839;27;20403;-60
2021/10/04 07:43:16;;;;;;;8.38;1.80;;;12.10;97.00;;;;;;5116020;27;20564;-60
2021/10/04 07:45:42;;;;;;;5.75;1.10;;;12.20;97.00;;;;;;5110680;27;20117;-60
2021/10/04 07:48:08;;;;;;;4.90;1.35;;;12.10;97.00;;;;;;5108403;27;20166;-60
2021/10/04 07:50:34;;;;;;;4.00;1.30;;;12.20;96.90;;;;;;5108423;27;20501;-61
2021/10/04 07:53:00;;;;;;;10.60;6.22;;;12.20;96.90;;;;;;5111973;27;20076;-60
2021/10/04 07:55:25;;;;;;;8.77;1.88;;;12.20;96.90;;;;;;5106723;27;20431;-61
2021/10/04 07:57:51;;;;;;;4.97;1.55;;;12.30;97.00;;;;;;5107875;27;20087;-61
2021/10/04 08:00:19;;;;;;;3.00;1.20;;;12.30;96.80;;;;;;5107641;27;20471;-61
2021/10/04 08:02:45;;;;;;;6.15;1.20;;;12.30;96.70;;;;;;5107645;27;20217;-60
2021/10/04 08:05:11;;;;;;;5.25;1.30;;;12.30;96.70;;;;;;5109557;27;20053;-60
2021/10/04 08:07:38;;;;;;;8.18;1.73;;;12.30;96.70;;;;;;5106119;27;20089;-59
2021/10/04 08:10:06;;;;;;;5.00;1.40;;;12.20;96.80;;;;;;5100325;27;20127;-59
2021/10/04 08:12:32;;;;;;;6.90;1.30;;;12.30;96.90;;;;;;5110566;27;20048;-60
2021/10/04 08:14:58;;;;;;;6.70;1.42;;;12.30;96.80;;;;;;5109222;27;20039;-59
2021/10/04 08:17:24;;;;;;;5.65;1.52;;;12.30;96.80;;;;;;5099510;27;20506;-59
2021/10/04 08:19:51;;;;;;;7.55;1.45;;;12.30;96.70;;;;;;5105704;27;20085;-59
2021/10/04 08:22:17;;;;;;;4.65;1.42;;;12.30;96.70;;;;;;5110834;27;20553;-59
2021/10/04 08:24:43;;;;;;;6.75;1.17;;;12.40;96.70;;;;;;5111297;27;20047;-58
2021/10/04 08:27:09;;;;;;;5.88;1.70;;;12.40;96.70;;;;;;5107930;27;20084;-59
2021/10/04 08:29:35;;;;;;;5.95;2.00;;;12.40;96.60;;;;;;5110868;27;20074;-62
2021/10/04 08:32:02;;;;;;;5.05;1.60;;;12.50;96.60;;;;;;5123186;27;20035;-61
2021/10/04 08:34:28;;;;;;;7.25;1.75;;;12.50;96.50;;;;;;5105733;27;20036;-62
2021/10/04 08:36:54;;;;;;;5.05;1.70;;;12.50;96.50;;;;;;5103256;27;20039;-60
2021/10/04 08:39:19;;;;;;;4.00;1.48;;;12.50;96.50;;;;;;5103418;27;20070;-60
2021/10/04 08:41:45;;;;;;;5.35;1.40;;;12.50;96.50;;;;;;5110524;27;20054;-61
2021/10/04 08:44:13;;;;;;;6.60;1.67;;;12.50;96.50;;;;;;5109814;27;20395;-60
2021/10/04 08:46:42;;;;;;;7.38;1.90;;;12.60;96.40;;;;;;5103767;27;20056;-60
2021/10/04 08:49:08;;;;;;;6.90;1.40;;;12.60;96.40;;;;;;5104576;27;20047;-59
2021/10/04 08:51:35;;;;;;;4.85;1.27;;;12.60;96.40;;;;;;5108477;27;20051;-62
2021/10/04 08:54:03;;;;;;;5.03;1.77;;;12.70;96.40;;;;;;5100924;27;20263;-62
2021/10/04 08:56:28;;;;;;;6.88;1.83;;;12.70;96.50;;;;;;5107879;27;20040;-61
2021/10/04 08:58:54;;;;;;;4.47;1.52;;;12.80;96.30;;;;;;5111314;27;20070;-61
2021/10/04 09:01:21;;;;;;;4.78;1.80;;;12.80;96.20;;;;;;5104847;27;20027;-61
2021/10/04 09:03:53;;;;;;;6.65;1.35;;;13.00;96.10;;;;;;5105873;27;20173;-62
2021/10/04 09:06:38;;;;;;;7.68;1.52;;;13.20;95.90;;;;;;5108483;27;22282;-59
2021/10/04 09:09:13;;;;;;;3.38;1.48;;;13.40;95.50;;;;;;5107759;27;20506;-59
2021/10/04 09:11:43;;;;;;;6.35;1.52;;;13.40;95.20;;;;;;5106946;27;20116;-59
2021/10/04 09:14:12;;;;;;;3.90;1.70;;;13.50;95.20;;;;;;5108649;27;20080;-59
2021/10/04 09:16:49;;;;;;;3.22;1.77;;;13.50;95.00;;;;;;5104671;27;20035;-60
2021/10/04 09:19:17;;;;;;;8.85;1.88;;;13.70;94.90;;;;;;5105502;27;20126;-59
2021/10/04 09:22:10;;;;;;;7.85;2.40;;;13.80;94.80;;;;;;5104348;27;20050;-59
2021/10/04 09:24:41;;;;;;;4.93;1.80;;;13.90;94.60;;;;;;5111106;27;20061;-59
2021/10/04 09:27:23;;;;;;;5.07;1.90;;;14.10;94.40;;;;;;5103980;27;20359;-59
2021/10/04 09:29:49;;;;;;;3.35;1.38;;;14.20;93.90;;;;;;5107876;27;20039;-59
2021/10/04 09:32:24;;;;;;;7.70;2.03;;;14.30;93.80;;;;;;5111599;27;20070;-58
2021/10/04 09:34:50;;;;;;;7.20;1.80;;;14.50;93.80;;;;;;5107125;27;20036;-59
2021/10/04 09:37:25;;;;;;;5.72;1.40;;;14.60;93.50;;;;;;5106212;27;20039;-59
2021/10/04 09:39:51;;;;;;;3.92;1.38;;;14.80;93.40;;;;;;5106648;27;20040;-58
2021/10/04 09:42:18;;;;;;;3.00;1.00;;;14.90;93.20;;;;;;5108642;27;20062;-59
2021/10/04 09:44:55;;;;;;;3.25;1.33;;;15.00;92.90;;;;;;5108595;27;20055;-58
2021/10/04 09:47:28;;;;;;;2.53;1.08;;;14.90;92.50;;;;;;5108876;27;20031;-59
2021/10/04 09:49:53;;;;;;;;;;;15.00;92.70;;;;;;5106220;27;20039;-59
2021/10/04 09:52:33;;;;;;;7.45;1.25;;;14.90;92.40;;;;;;5107497;27;19928;-59
2021/10/04 09:54:59;;;;;;;5.13;1.50;;;15.00;92.70;;;;;;5108056;27;20138;-58
2021/10/04 09:57:25;;;;;;;3.65;1.20;;;15.00;92.40;;;;;;5098052;27;20046;-58
2021/10/04 09:59:52;;;;;;;4.97;1.60;;;15.10;92.40;;;;;;5109203;27;20085;-59
2021/10/04 10:02:18;;;;;;;5.82;1.33;;;15.20;92.20;;;;;;5107222;27;20170;-58
2021/10/04 10:04:46;;;;;;;5.38;1.33;;;15.30;92.30;;;;;;5106539;27;20187;-59
2021/10/04 10:07:13;;;;;;;5.35;1.48;;;15.40;92.20;;;;;;5100643;27;20089;-58
2021/10/04 10:09:40;;;;;;;8.77;1.65;;;15.40;91.80;;;;;;5106148;27;20042;-58
2021/10/04 10:12:08;;;;;;;5.50;1.40;;;15.50;91.60;;;;;;5104706;27;20478;-59
2021/10/04 10:14:47;;;;;;;9.63;1.73;;;15.60;91.70;;;;;;5105654;27;20488;-58
2021/10/04 10:17:29;;;;;;;6.38;1.27;;;15.70;91.70;;;;;;5107127;27;20049;-59
2021/10/04 10:19:57;;;;;;;6.38;1.77;;;15.90;91.50;;;;;;5107344;27;20058;-59
2021/10/04 10:22:29;;;;;;;4.50;1.42;;;15.90;91.30;;;;;;5105430;27;20049;-59
2021/10/04 10:24:56;;;;;;;7.65;1.23;;;15.90;91.50;;;;;;5104121;27;20083;-59
2021/10/04 10:27:39;;;;;;;5.78;1.90;;;16.00;91.40;;;;;;5101563;27;20399;-59
2021/10/04 10:30:19;;;;;;;7.53;1.52;;;16.10;90.50;;;;;;5105553;27;20032;-59
2021/10/04 10:32:44;;;;;;;7.07;1.40;;;16.00;90.10;;;;;;5104064;27;20043;-59
2021/10/04 10:35:10;;;;;;;7.68;1.15;;;16.10;90.00;;;;;;5108349;27;20039;-59
2021/10/04 10:37:51;;;;;;;8.05;1.23;;;16.10;90.30;;;;;;5111161;27;20499;-59
2021/10/04 10:40:22;;;;;;;3.70;1.30;;;16.30;90.20;;;;;;5103898;27;20121;-59
2021/10/04 10:43:03;;;;;;;4.93;1.10;;;16.30;90.00;;;;;;5105804;27;20065;-59
2021/10/04 10:45:50;;;;;;;8.50;1.17;;;16.40;89.80;;;;;;5105597;27;20040;-59
2021/10/04 10:48:17;;;;;;;4.90;1.17;;;16.50;89.90;;;;;;5109861;27;20048;-59
2021/10/04 10:50:47;;;;;;;4.25;1.42;;;16.50;90.20;;;;;;5103144;27;20058;-59
2021/10/04 10:53:24;;;;;;;5.85;1.33;;;16.60;88.90;;;;;;5103323;27;20059;-60
2021/10/04 10:55:58;;;;;;;4.38;1.35;;;16.70;89.40;;;;;;5110870;27;20109;-59
2021/10/04 10:58:30;;;;;;;5.32;1.20;;;16.70;88.60;;;;;;5103214;28;20035;-59
2021/10/04 11:01:06;;;;;;;4.55;0.90;;;16.70;87.40;;;;;;5094881;27;20043;-59
2021/10/04 11:03:43;;;;;;;4.63;0.95;;;16.70;87.00;;;;;;5104280;27;20383;-59
2021/10/04 11:06:09;;;;;;;7.85;2.25;;;16.60;87.20;;;;;;5107224;28;20122;-59
2021/10/04 11:08:35;;;;;;;4.18;1.02;;;16.50;86.60;;;;;;5103379;28;20348;-59
2021/10/04 11:11:00;;;;;;;7.40;1.63;;;16.50;86.50;;;;;;5097545;28;20032;-59
2021/10/04 11:14:07;;;;;;;7.05;1.45;;;16.60;86.70;;;;;;5109408;28;20112;-59
2021/10/04 11:16:38;;;;;;;6.30;1.00;;;16.60;86.20;;;;;;5105751;28;20484;-59
2021/10/04 11:19:05;;;;;;;7.13;1.40;;;16.70;86.50;;;;;;5062764;28;20036;-59
2021/10/04 11:21:32;;;;;;;2.95;0.77;;;16.70;86.00;;;;;;5105816;28;20835;-59
2021/10/04 11:24:04;;;;;;;7.57;1.73;;;16.80;86.20;;;;;;5104951;28;20061;-59
2021/10/04 11:26:36;;;;;;;5.03;0.93;;;16.90;85.80;;;;;;5095596;28;20518;-59
2021/10/04 11:29:04;;;;;;;5.38;1.25;;;16.90;85.50;;;;;;5103525;28;20092;-59
2021/10/04 11:31:44;;;;;;;6.75;1.52;;;16.90;85.20;;;;;;5097039;28;20932;-59
2021/10/04 11:34:11;;;;;;;4.57;1.40;;;17.00;85.30;;;;;;5112102;28;20039;-59
2021/10/04 11:36:49;;;;;;;5.97;1.20;;;17.10;86.00;;;;;;5103581;28;20097;-59
2021/10/04 11:39:24;;;;;;;9.05;1.45;;;17.20;84.50;;;;;;5106147;28;20035;-60
2021/10/04 11:41:56;;;;;;;4.47;0.80;;;17.20;83.90;;;;;;5105907;28;20179;-60
2021/10/04 11:44:25;;;;;;;4.30;0.80;;;17.20;83.00;;;;;;5107803;28;20067;-62
2021/10/04 11:46:54;;;;;;;6.63;1.00;;;17.20;83.10;;;;;;5100580;28;20484;-62
2021/10/04 11:49:25;;;;;;;5.55;1.40;;;17.20;82.30;;;;;;5106582;28;20035;-62
2021/10/04 11:51:55;;;;;;;6.55;0.98;;;17.20;82.70;;;;;;5108617;28;20039;-62
2021/10/04 11:54:39;;;;;;;3.92;0.77;;;17.30;81.50;;;;;;5106661;28;20582;-63
2021/10/04 11:57:14;;;;;;;7.43;0.93;;;17.20;81.30;;;;;;5102446;28;20447;-64
2021/10/04 12:00:04;;;;;;;7.18;1.20;;;17.20;82.00;;;;;;5108807;28;20048;-63
2021/10/04 12:02:36;;;;;;;6.70;2.10;;;17.30;81.50;;;;;;5097982;28;20076;-64
2021/10/04 12:05:13;;;;;;;3.72;1.25;;;17.50;83.00;;;;;;5100294;28;20673;-63
2021/10/04 12:08:04;;;;;;;4.88;1.13;;;17.60;82.30;;;;;;5106513;28;20062;-63
2021/10/04 12:10:46;;;;;;;3.08;1.10;;;17.70;82.40;;;;;;5109289;28;20100;-64
2021/10/04 12:13:16;;;;;;;5.13;1.50;;;17.80;81.30;;;;;;5104669;27;20040;-63
2021/10/04 12:15:42;;;;;;;5.85;1.88;;;17.80;80.00;;;;;;5111242;27;20068;-63
2021/10/04 12:18:29;;;;;;;7.05;1.73;;;17.90;80.60;;;;;;5123825;27;20062;-64
2021/10/04 12:21:19;;;;;;;6.28;1.48;;;18.00;80.00;;;;;;5110502;27;20031;-64
2021/10/04 12:24:03;;;;;;;6.30;1.08;;;18.00;78.40;;;;;;5108791;27;20043;-63
2021/10/04 12:26:29;;;;;;;4.55;1.30;;;18.00;78.00;;;;;;5100114;27;20170;-63
2021/10/04 12:28:55;;;;;;;6.15;1.73;;;18.00;77.50;;;;;;5112882;27;20047;-64
2021/10/04 12:31:38;;;;;;;9.25;1.27;;;18.10;78.70;;;;;;5105860;27;20050;-64
2021/10/04 12:34:26;;;;;;;4.93;0.98;;;18.20;77.20;;;;;;5112644;27;20048;-63
2021/10/04 12:36:54;;;;;;;3.85;0.80;;;18.10;77.20;;;;;;5107596;27;20046;-63
2021/10/04 12:39:20;;;;;;;5.93;1.00;;;18.00;76.40;;;;;;5106704;27;20092;-62
2021/10/04 12:41:56;;;;;;;3.63;1.02;;;18.00;76.80;;;;;;5108368;27;20434;-63
2021/10/04 12:44:22;;;;;;;6.50;1.42;;;18.00;78.00;;;;;;5110491;27;20044;-63
2021/10/04 12:47:05;;;;;;;6.60;1.00;;;18.00;78.70;;;;;;5101248;27;20047;-62
2021/10/04 12:49:31;;;;;;;7.78;1.10;;;18.00;77.10;;;;;;5110731;27;20074;-63
2021/10/04 12:51:58;;;;;;;5.53;1.02;;;17.90;76.50;;;;;;5105384;27;20044;-64